Time;durP1;ratioP1;P1;durP2;ratioP2;P2;SDS_P1;SDS_P2;PMS_P1;PMS_P2;Temp;Humidity;BMP_temperature;BMP_pressure;BME280_temperature;BME280_humidity;BME280_pressure;Samples;Min_cycle;Max_cycle;Signal;HPM_P1;HPM_P2
2022/11/06 00:01:25;;;;;;;0.90;0.60;;;;;;;8.08;38.09;92538.22;4877590;29;20048;-77
2022/11/06 00:03:52;;;;;;;0.60;0.60;;;;;;;8.09;37.74;92534.56;4877609;29;20096;-77
2022/11/06 00:09:05;;;;;;;0.60;0.60;;;;;;;8.04;38.30;92532.78;4875253;29;20116;-77
2022/11/06 00:11:31;;;;;;;0.60;0.60;;;;;;;7.97;38.89;92537.50;4877438;29;20060;-77
2022/11/06 00:13:57;;;;;;;0.63;0.63;;;;;;;7.95;38.64;92539.59;4877394;29;20064;-77
2022/11/06 00:16:22;;;;;;;0.60;0.60;;;;;;;7.84;39.43;92532.88;4872558;29;20082;-77
2022/11/06 00:18:49;;;;;;;0.60;0.60;;;;;;;7.77;40.11;92534.97;4869649;29;20041;-77
2022/11/06 00:21:23;;;;;;;0.60;0.60;;;;;;;7.66;40.10;92532.41;4874648;29;20043;-77
2022/11/06 00:23:50;;;;;;;0.60;0.60;;;;;;;7.59;39.95;92526.72;4877391;29;20037;-77
2022/11/06 00:26:20;;;;;;;0.70;0.70;;;;;;;7.62;39.00;92526.16;4876355;29;20104;-77
2022/11/06 00:28:47;;;;;;;0.50;0.50;;;;;;;7.59;39.25;92520.69;4867653;29;20055;-77
2022/11/06 00:31:18;;;;;;;0.60;0.60;;;;;;;7.57;39.53;92525.44;4877092;29;20044;-77
2022/11/06 00:33:44;;;;;;;0.60;0.60;;;;;;;7.62;38.93;92525.41;4875901;29;20075;-77
2022/11/06 00:36:13;;;;;;;0.80;0.70;;;;;;;7.59;39.09;92516.28;4877229;29;20037;-77
2022/11/06 00:38:38;;;;;;;0.57;0.57;;;;;;;7.58;38.95;92525.13;4859986;29;20022;-77
2022/11/06 00:41:06;;;;;;;0.60;0.60;;;;;;;7.58;37.97;92519.94;4857113;29;20109;-77
2022/11/06 00:43:32;;;;;;;0.50;0.50;;;;;;;7.64;37.46;92526.69;4858628;29;20037;-76
2022/11/06 00:46:09;;;;;;;0.50;0.50;;;;;;;7.66;37.54;92529.81;4858611;29;20034;-77
2022/11/06 00:48:36;;;;;;;0.50;0.50;;;;;;;7.69;37.72;92528.50;4859313;29;20037;-77
2022/11/06 00:51:11;;;;;;;1.27;0.70;;;;;;;7.67;37.75;92515.72;4877121;29;20033;-78
2022/11/06 00:53:37;;;;;;;0.50;0.50;;;;;;;7.69;37.77;92520.69;4877159;29;20132;-78
2022/11/06 00:56:09;;;;;;;0.40;0.40;;;;;;;7.71;37.31;92518.59;4873823;29;20040;-78
2022/11/06 00:58:35;;;;;;;0.50;0.50;;;;;;;7.72;37.05;92525.34;4867180;29;20030;-78
2022/11/06 01:01:10;;;;;;;0.60;0.60;;;;;;;7.69;37.18;92523.28;4876511;29;20037;-78
2022/11/06 01:03:37;;;;;;;0.43;0.43;;;;;;;7.71;37.05;92529.00;4877138;29;20040;-78
2022/11/06 01:06:11;;;;;;;0.60;0.60;;;;;;;7.72;37.47;92522.75;4877241;29;20125;-78
2022/11/06 01:08:37;;;;;;;0.50;0.50;;;;;;;7.76;37.21;92536.81;4870930;29;20430;-78
2022/11/06 01:11:12;;;;;;;0.50;0.50;;;;;;;7.69;37.33;92537.09;4871457;29;20076;-78
2022/11/06 01:13:39;;;;;;;0.60;0.60;;;;;;;7.72;37.05;92547.00;4875788;29;20037;-78
2022/11/06 01:16:07;;;;;;;0.60;0.60;;;;;;;7.68;36.83;92545.19;4875581;29;20029;-78
2022/11/06 01:18:33;;;;;;;0.45;0.45;;;;;;;7.66;36.45;92558.47;4872870;29;20060;-78
2022/11/06 01:21:03;;;;;;;0.77;0.70;;;;;;;7.62;36.43;92551.44;4867070;29;20037;-78
2022/11/06 01:23:28;;;;;;;0.50;0.50;;;;;;;7.65;35.94;92550.91;4876797;29;20037;-75
2022/11/06 01:25:56;;;;;;;0.50;0.50;;;;;;;7.68;35.61;92553.78;4875624;29;20044;-78
2022/11/06 01:28:21;;;;;;;0.65;0.63;;;;;;;7.71;35.51;92557.69;4876767;29;20047;-77
2022/11/06 01:30:47;;;;;;;0.60;0.60;;;;;;;7.76;34.68;92557.66;4863539;29;20037;-77
2022/11/06 01:33:12;;;;;;;0.60;0.60;;;;;;;7.80;35.12;92570.94;4876555;29;20064;-78
2022/11/06 01:35:44;;;;;;;0.40;0.40;;;;;;;7.78;35.00;92567.81;4876568;29;20045;-78
2022/11/06 01:38:09;;;;;;;0.50;0.50;;;;;;;7.74;34.76;92554.53;4876696;29;20033;-78
2022/11/06 01:40:47;;;;;;;0.65;0.65;;;;;;;7.77;34.46;92563.63;4865504;29;20109;-77
2022/11/06 01:43:16;;;;;;;0.50;0.43;;;;;;;7.69;35.20;92560.53;4855133;29;20747;-78
2022/11/06 01:45:44;;;;;;;0.63;0.63;;;;;;;7.62;35.05;92562.66;4878748;29;20679;-78
2022/11/06 01:48:11;;;;;;;1.38;0.55;;;;;;;7.56;35.40;92562.94;4878532;29;20049;-78
2022/11/06 01:50:39;;;;;;;0.50;0.50;;;;;;;7.49;35.54;92565.81;4869814;29;20041;-78
2022/11/06 01:53:05;;;;;;;1.40;0.60;;;;;;;7.43;35.92;92561.66;4860041;29;20543;-78
2022/11/06 01:55:38;;;;;;;0.65;0.65;;;;;;;7.37;35.89;92554.91;4861149;29;20049;-77
2022/11/06 01:58:08;;;;;;;0.60;0.60;;;;;;;7.30;35.74;92550.75;4861282;29;20036;-78
2022/11/06 02:00:33;;;;;;;0.60;0.60;;;;;;;7.32;36.17;92562.72;4861056;29;20234;-78
2022/11/06 02:03:00;;;;;;;0.60;0.60;;;;;;;7.23;36.15;92555.47;4867980;29;20041;-78
2022/11/06 02:05:25;;;;;;;0.60;0.60;;;;;;;7.23;35.97;92552.06;4862995;29;20041;-78
2022/11/06 02:07:54;;;;;;;0.57;0.57;;;;;;;7.23;35.88;92550.25;4878212;29;20112;-78
2022/11/06 02:10:19;;;;;;;0.65;0.65;;;;;;;7.31;36.96;92551.53;4879230;29;20064;-77
2022/11/06 02:13:09;;;;;;;0.50;0.50;;;;;;;7.20;38.12;92544.78;4868033;29;20084;-78
2022/11/06 02:16:02;;;;;;;0.50;0.50;;;;;;;7.04;40.14;92536.22;4842394;29;20042;-78
2022/11/06 02:18:49;;;;;;;0.50;0.50;;;;;;;6.90;39.74;92530.75;4856738;29;20034;-78
2022/11/06 02:21:52;;;;;;;0.40;0.40;;;;;;;6.78;41.08;92540.69;4844002;29;20497;-77
2022/11/06 02:24:17;;;;;;;;;;;;;;;6.68;39.78;92539.59;4871833;29;20021;-78
2022/11/06 02:27:01;;;;;;;0.50;0.50;;;;;;;6.65;39.42;92532.34;4878058;29;19975;-77
2022/11/06 02:30:07;;;;;;;0.60;0.60;;;;;;;6.61;39.68;92527.91;4879017;29;20044;-77
2022/11/06 02:33:02;;;;;;;0.40;0.40;;;;;;;6.57;40.89;92521.66;4870475;29;20385;-78
2022/11/06 02:35:33;;;;;;;0.60;0.60;;;;;;;6.53;40.11;92521.41;4876202;29;20040;-77
2022/11/06 02:38:06;;;;;;;0.97;0.70;;;;;;;6.44;40.62;92513.34;4875735;29;20239;-77
2022/11/06 02:40:36;;;;;;;0.63;0.60;;;;;;;6.44;39.93;92523.75;4878823;29;20036;-77
2022/11/06 02:43:06;;;;;;;0.50;0.50;;;;;;;6.44;39.68;92513.34;4870649;29;20026;-77
2022/11/06 02:45:40;;;;;;;0.55;0.55;;;;;;;6.73;38.34;92512.81;4873492;29;20043;-78
2022/11/06 02:48:09;;;;;;;0.50;0.50;;;;;;;6.78;38.42;92507.63;4873270;29;20488;-77
2022/11/06 02:50:41;;;;;;;0.43;0.43;;;;;;;6.66;39.51;92520.91;4868293;29;20033;-77
2022/11/06 02:53:11;;;;;;;0.60;0.60;;;;;;;6.56;40.42;92512.31;4873861;29;20055;-78
2022/11/06 02:55:39;;;;;;;0.50;0.50;;;;;;;6.36;41.80;92516.47;4866224;29;20523;-77
2022/11/06 02:58:11;;;;;;;0.57;0.57;;;;;;;6.25;42.39;92525.28;4877447;29;20037;-77
2022/11/06 03:00:41;;;;;;;0.52;0.50;;;;;;;6.16;42.26;92519.03;4877102;29;20625;-77
2022/11/06 03:03:22;;;;;;;0.50;0.50;;;;;;;6.04;42.47;92522.66;4878548;29;20056;-77
2022/11/06 03:05:58;;;;;;;0.45;0.45;;;;;;;5.89;43.79;92527.78;4852444;29;20040;-77
2022/11/06 03:08:37;;;;;;;0.60;0.60;;;;;;;5.84;44.97;92533.75;4878401;29;20044;-77
2022/11/06 03:11:18;;;;;;;0.60;0.60;;;;;;;5.76;44.85;92533.44;4877005;29;20407;-78
2022/11/06 03:13:58;;;;;;;0.63;0.55;;;;;;;5.68;45.30;92534.72;4874738;29;20093;-77
2022/11/06 03:16:31;;;;;;;0.75;0.60;;;;;;;5.65;45.11;92527.44;4854774;29;20024;-77
2022/11/06 03:19:01;;;;;;;0.50;0.50;;;;;;;5.59;45.33;92531.84;4878241;29;20068;-77
2022/11/06 03:21:37;;;;;;;0.47;0.47;;;;;;;5.49;46.42;92524.00;4876819;29;20032;-77
2022/11/06 03:24:13;;;;;;;0.70;0.70;;;;;;;5.45;46.98;92533.34;4878458;29;20036;-77
2022/11/06 03:26:44;;;;;;;0.70;0.60;;;;;;;5.36;47.66;92537.47;4873402;29;20045;-77
2022/11/06 03:29:14;;;;;;;0.65;0.65;;;;;;;5.26;48.12;92521.81;4876650;29;20041;-77
2022/11/06 03:31:48;;;;;;;2.58;1.08;;;;;;;5.17;47.50;92527.47;4876588;29;20045;-77
2022/11/06 03:34:29;;;;;;;0.60;0.60;;;;;;;5.08;48.23;92523.78;4877847;29;20040;-77
2022/11/06 03:37:08;;;;;;;0.82;0.80;;;;;;;5.03;49.03;92520.41;4859199;29;20065;-77
2022/11/06 03:39:41;;;;;;;0.80;0.68;;;;;;;4.98;49.20;92518.56;4877897;29;20117;-77
2022/11/06 03:42:11;;;;;;;0.65;0.65;;;;;;;4.97;49.32;92511.78;4877986;29;20036;-77
2022/11/06 03:44:46;;;;;;;0.82;0.68;;;;;;;4.94;49.02;92512.31;4877608;29;20039;-78
2022/11/06 03:47:25;;;;;;;0.65;0.60;;;;;;;4.91;49.44;92513.59;4857775;29;20045;-77
2022/11/06 03:50:08;;;;;;;0.60;0.60;;;;;;;4.87;49.25;92507.34;4840507;29;20038;-77
2022/11/06 03:52:57;;;;;;;0.70;0.70;;;;;;;4.83;49.71;92503.66;4841048;29;20052;-78
2022/11/06 03:55:33;;;;;;;0.75;0.70;;;;;;;4.81;49.03;92513.50;4840872;29;20034;-77
2022/11/06 03:58:09;;;;;;;0.60;0.60;;;;;;;4.81;48.83;92521.28;4859439;29;20511;-77
2022/11/06 04:00:39;;;;;;;0.50;0.50;;;;;;;4.82;48.67;92519.47;4876418;29;20097;-77
2022/11/06 04:03:28;;;;;;;0.85;0.70;;;;;;;4.82;48.75;92511.69;4877343;29;20037;-77
2022/11/06 04:06:05;;;;;;;0.50;0.50;;;;;;;4.81;49.29;92513.50;4877259;29;20081;-77
2022/11/06 04:14:08;;;;;;;0.50;0.50;;;;;;;4.81;48.28;92523.88;4877385;29;20581;-77
2022/11/06 04:16:40;;;;;;;0.47;0.47;;;;;;;4.85;48.39;92529.38;4877939;29;20105;-77
2022/11/06 04:19:16;;;;;;;0.77;0.70;;;;;;;4.84;48.81;92536.38;4858604;29;20065;-77
2022/11/06 04:21:48;;;;;;;1.65;0.70;;;;;;;4.82;48.82;92535.03;4876036;29;20044;-77
2022/11/06 04:27:41;;;;;;;0.98;0.70;;;;;;;4.82;48.34;92537.63;4876014;29;20040;-78
2022/11/06 04:30:13;;;;;;;0.93;0.60;;;;;;;4.82;48.18;92546.22;4870710;29;20068;-77
2022/11/06 04:33:00;;;;;;;0.63;0.60;;;;;;;4.80;48.74;92549.03;4877091;29;20045;-77
2022/11/06 04:35:38;;;;;;;0.60;0.60;;;;;;;4.79;48.46;92552.66;4852180;29;20080;-77
2022/11/06 04:38:11;;;;;;;0.52;0.52;;;;;;;4.76;48.59;92553.16;4871290;29;20444;-77
2022/11/06 04:40:50;;;;;;;0.50;0.50;;;;;;;4.78;48.01;92548.50;4854808;29;20052;-77
2022/11/06 04:43:27;;;;;;;0.50;0.50;;;;;;;4.80;47.31;92551.63;4877240;29;20041;-77
2022/11/06 04:45:56;;;;;;;0.60;0.60;;;;;;;4.91;46.53;92552.50;4875887;29;20407;-77
2022/11/06 04:48:23;;;;;;;0.95;0.73;;;;;;;4.94;46.97;92540.84;4876726;29;20025;-77
2022/11/06 04:50:53;;;;;;;0.75;0.55;;;;;;;4.88;48.81;92544.41;4861124;29;20044;-78
2022/11/06 04:53:20;;;;;;;0.60;0.60;;;;;;;4.83;48.80;92552.19;4876939;29;20077;-77
2022/11/06 04:55:50;;;;;;;0.50;0.50;;;;;;;4.79;48.56;92542.28;4877075;29;20033;-77
2022/11/06 04:58:16;;;;;;;0.60;0.60;;;;;;;4.77;48.49;92548.75;4877208;29;20029;-77
2022/11/06 05:00:45;;;;;;;1.23;0.90;;;;;;;4.70;48.69;92551.56;4858522;29;20045;-77
2022/11/06 05:03:12;;;;;;;0.85;0.75;;;;;;;4.68;48.79;92558.78;4874967;29;20082;-77
2022/11/06 05:05:37;;;;;;;1.15;0.80;;;;;;;4.64;48.39;92556.94;4876873;29;20045;-77
2022/11/06 05:08:03;;;;;;;0.80;0.80;;;;;;;4.62;47.42;92562.41;4876887;29;20048;-77
2022/11/06 05:10:29;;;;;;;0.80;0.80;;;;;;;4.56;48.14;92558.19;4864926;29;20040;-77
2022/11/06 05:12:54;;;;;;;0.85;0.60;;;;;;;4.56;48.86;92568.56;4868932;29;20032;-77
2022/11/06 05:15:20;;;;;;;0.50;0.50;;;;;;;4.51;49.05;92560.75;4880018;29;20051;-77
2022/11/06 05:17:46;;;;;;;0.50;0.50;;;;;;;4.50;48.65;92559.16;4880373;29;20029;-77
2022/11/06 05:20:11;;;;;;;0.60;0.60;;;;;;;4.50;48.64;92557.38;4873873;29;20041;-77
2022/11/06 05:22:59;;;;;;;0.50;0.50;;;;;;;4.50;49.25;92559.97;4865907;29;20127;-77
2022/11/06 05:25:31;;;;;;;0.50;0.50;;;;;;;4.48;49.36;92563.81;4880344;29;20128;-77
2022/11/06 05:27:58;;;;;;;0.80;0.73;;;;;;;4.45;49.53;92559.13;4880241;29;20029;-77
2022/11/06 05:30:24;;;;;;;0.52;0.50;;;;;;;4.45;49.17;92561.72;4871594;29;20113;-77
2022/11/06 05:32:51;;;;;;;0.50;0.50;;;;;;;4.43;49.30;92561.19;4862475;29;20075;-77
2022/11/06 05:35:17;;;;;;;1.27;0.65;;;;;;;4.41;50.28;92563.25;4880006;29;20060;-77
2022/11/06 05:37:43;;;;;;;0.50;0.50;;;;;;;4.35;50.25;92563.19;4880278;29;20041;-77
2022/11/06 05:40:09;;;;;;;0.50;0.50;;;;;;;4.36;51.03;92567.34;4878701;29;20515;-77
2022/11/06 05:42:39;;;;;;;0.47;0.47;;;;;;;4.34;50.80;92568.63;4861446;29;20118;-77
2022/11/06 05:45:06;;;;;;;1.58;0.63;;;;;;;4.31;51.33;92567.31;4842813;29;20042;-77
2022/11/06 05:47:31;;;;;;;0.90;0.50;;;;;;;4.31;51.36;92562.13;4842848;29;20034;-77
2022/11/06 05:49:57;;;;;;;0.60;0.60;;;;;;;4.30;51.49;92576.13;4856961;29;20413;-77
2022/11/06 05:52:23;;;;;;;0.50;0.50;;;;;;;4.29;50.91;92573.75;4867216;29;20473;-77
2022/11/06 05:54:48;;;;;;;0.65;0.63;;;;;;;4.31;50.68;92576.91;4871902;29;20040;-77
2022/11/06 05:57:14;;;;;;;0.50;0.50;;;;;;;4.31;50.77;92582.09;4878535;29;20037;-77
2022/11/06 05:59:39;;;;;;;0.52;0.50;;;;;;;4.32;50.86;92584.44;4879417;29;20037;-77
2022/11/06 06:02:05;;;;;;;0.43;0.43;;;;;;;4.32;50.94;92592.22;4874725;29;20514;-77
2022/11/06 06:04:30;;;;;;;1.92;1.20;;;;;;;4.30;51.28;92588.28;4866993;29;20112;-77
2022/11/06 06:06:56;;;;;;;4.05;2.53;;;;;;;4.29;51.36;92595.28;4877139;29;20495;-77
2022/11/06 06:09:22;;;;;;;4.15;2.13;;;;;;;4.33;51.25;92601.53;4879361;29;20484;-77
2022/11/06 06:11:51;;;;;;;6.05;2.70;;;;;;;4.33;51.38;92596.34;4879826;29;20076;-78
2022/11/06 06:14:18;;;;;;;6.05;3.10;;;;;;;4.35;52.10;92604.66;4847216;29;20049;-79
2022/11/06 06:16:43;;;;;;;9.20;5.05;;;;;;;4.36;52.19;92597.66;4879441;29;20033;-79
2022/11/06 06:19:09;;;;;;;9.65;5.25;;;;;;;4.37;52.30;92607.81;4881815;29;20465;-79
2022/11/06 06:21:35;;;;;;;20.60;10.63;;;;;;;4.38;51.72;92609.34;4879500;29;20045;-78
2022/11/06 06:24:05;;;;;;;24.05;12.10;;;;;;;4.43;51.35;92613.03;4864902;29;20369;-79
2022/11/06 06:26:30;;;;;;;21.33;9.60;;;;;;;4.54;51.15;92622.47;4857237;29;20042;-79
2022/11/06 06:28:56;;;;;;;16.52;8.80;;;;;;;5.24;50.16;92605.13;4893312;29;20539;-79
2022/11/06 06:31:22;;;;;;;30.85;14.05;;;;;;;6.10;48.22;92621.41;4864558;29;20033;-79
2022/11/06 06:33:48;;;;;;;21.33;10.38;;;;;;;6.81;47.43;92610.41;4863982;29;20084;-78
2022/11/06 06:36:14;;;;;;;10.65;4.55;;;;;;;7.74;45.34;92614.47;4870948;29;20106;-79
2022/11/06 06:38:39;;;;;;;6.05;3.35;;;;;;;8.53;42.50;92617.28;4883100;29;20029;-79
2022/11/06 06:41:07;;;;;;;5.35;3.25;;;;;;;9.24;41.62;92625.69;4881423;29;20055;-79
2022/11/06 06:43:33;;;;;;;8.60;4.70;;;;;;;9.75;39.90;92633.88;4881997;29;20067;-80
2022/11/06 06:46:01;;;;;;;6.68;4.32;;;;;;;9.89;39.30;92631.38;4876176;29;20028;-80
2022/11/06 06:48:27;;;;;;;7.53;4.20;;;;;;;10.19;39.62;92635.47;4882414;29;20049;-79
2022/11/06 06:50:57;;;;;;;8.20;5.13;;;;;;;10.58;38.32;92642.38;4866240;29;20106;-80
2022/11/06 06:53:23;;;;;;;7.88;4.70;;;;;;;11.38;37.80;92640.69;4854303;29;20098;-79
2022/11/06 06:55:48;;;;;;;5.53;3.10;;;;;;;12.32;36.98;92640.66;4861970;29;20037;-80
2022/11/06 06:58:14;;;;;;;2.78;1.60;;;;;;;13.30;35.67;92648.06;4862372;29;20060;-80
2022/11/06 07:00:39;;;;;;;2.60;1.23;;;;;;;14.04;34.26;92652.06;4860783;29;20037;-79
2022/11/06 07:03:05;;;;;;;1.58;1.02;;;;;;;15.05;32.69;92646.94;4880796;29;20092;-80
2022/11/06 07:05:31;;;;;;;1.48;0.90;;;;;;;15.80;31.02;92650.91;4872642;29;20627;-80
2022/11/06 07:07:56;;;;;;;6.15;2.78;;;;;;;16.61;30.20;92645.81;4865955;29;20041;-79
2022/11/06 07:10:22;;;;;;;7.15;4.00;;;;;;;17.37;28.70;92649.41;4838358;29;20044;-79
2022/11/06 07:12:47;;;;;;;3.22;1.90;;;;;;;17.61;28.18;92652.16;4830316;29;20084;-79
2022/11/06 07:15:13;;;;;;;2.42;1.30;;;;;;;18.21;27.32;92654.53;4864624;29;20045;-79
2022/11/06 07:17:39;;;;;;;1.63;1.08;;;;;;;18.72;26.87;92657.66;4854924;29;20503;-79
2022/11/06 07:20:06;;;;;;;0.75;0.75;;;;;;;19.79;25.64;92661.91;4865271;29;20041;-78
2022/11/06 07:22:31;;;;;;;1.05;0.82;;;;;;;19.95;24.41;92660.06;4861623;29;20056;-78
2022/11/06 07:24:57;;;;;;;0.93;0.77;;;;;;;19.85;25.30;92658.66;4865176;29;20037;-79
2022/11/06 07:27:22;;;;;;;1.08;0.80;;;;;;;20.25;24.71;92649.06;4874709;29;20042;-78
2022/11/06 07:29:48;;;;;;;1.80;1.10;;;;;;;20.21;25.52;92653.50;4862250;29;20051;-79
2022/11/06 07:32:14;;;;;;;1.73;0.82;;;;;;;21.15;23.74;92659.91;4853723;29;20052;-78
2022/11/06 07:34:39;;;;;;;0.75;0.70;;;;;;;20.69;24.79;92662.28;4856793;29;20057;-78
2022/11/06 07:37:05;;;;;;;1.33;0.90;;;;;;;20.71;24.35;92665.38;4838115;29;20132;-77
2022/11/06 07:39:31;;;;;;;1.27;0.90;;;;;;;21.15;25.03;92655.34;4860215;29;20037;-78
2022/11/06 07:41:57;;;;;;;0.95;0.85;;;;;;;21.48;25.16;92659.47;4852143;29;20041;-79
2022/11/06 07:44:22;;;;;;;3.75;1.83;;;;;;;22.17;24.07;92656.19;4860870;29;20049;-80
2022/11/06 07:46:48;;;;;;;2.17;0.93;;;;;;;21.26;23.99;92660.91;4842443;29;20069;-78
2022/11/06 07:49:15;;;;;;;1.40;1.10;;;;;;;21.07;24.18;92656.28;4859705;29;20042;-78
2022/11/06 07:51:41;;;;;;;1.50;1.08;;;;;;;22.24;23.37;92651.00;4860856;29;20042;-78
2022/11/06 07:54:07;;;;;;;1.42;0.98;;;;;;;22.29;23.75;92641.94;4861008;29;20044;-78
2022/11/06 07:56:33;;;;;;;1.98;1.00;;;;;;;22.27;24.09;92652.19;4867613;29;20049;-79
2022/11/06 07:58:58;;;;;;;0.90;0.88;;;;;;;20.82;25.01;92650.41;4856942;29;20416;-78
2022/11/06 08:01:24;;;;;;;0.88;0.70;;;;;;;20.75;26.57;92644.94;4858807;29;20033;-78
2022/11/06 08:03:49;;;;;;;1.65;1.00;;;;;;;22.10;24.86;92640.84;4858372;29;20041;-83
2022/11/06 08:06:15;;;;;;;1.15;0.80;;;;;;;21.41;24.84;92649.47;4859688;29;20044;-78
2022/11/06 08:08:40;;;;;;;2.72;1.13;;;;;;;21.63;25.26;92639.97;4860513;29;20032;-78
2022/11/06 08:11:08;;;;;;;2.97;0.93;;;;;;;20.90;26.15;92635.41;4854073;29;20433;-77
2022/11/06 08:13:34;;;;;;;1.25;0.80;;;;;;;19.91;27.13;92630.75;4849023;29;20037;-77
2022/11/06 08:16:07;;;;;;;3.13;1.10;;;;;;;18.84;29.39;92639.13;4844497;29;20052;-78
2022/11/06 08:18:33;;;;;;;5.70;3.35;;;;;;;17.32;33.54;92642.44;4841616;29;20038;-78
2022/11/06 08:20:59;;;;;;;1.50;0.88;;;;;;;16.60;33.46;92639.00;4854470;29;20043;-78
2022/11/06 08:23:25;;;;;;;1.33;0.77;;;;;;;16.11;33.87;92636.72;4852152;29;20411;-78
2022/11/06 08:25:59;;;;;;;1.58;1.00;;;;;;;16.05;32.68;92639.84;4855413;29;20041;-77
2022/11/06 08:28:25;;;;;;;0.88;0.73;;;;;;;15.97;34.29;92644.84;4852260;29;20198;-77
2022/11/06 08:30:51;;;;;;;0.98;0.80;;;;;;;15.51;35.39;92641.00;4867261;29;20047;-77
2022/11/06 08:33:17;;;;;;;1.10;0.85;;;;;;;15.66;33.56;92636.34;4842074;29;20053;-77
2022/11/06 08:35:43;;;;;;;1.90;0.90;;;;;;;15.15;33.89;92636.06;4847395;29;20037;-78
2022/11/06 08:38:09;;;;;;;2.13;0.90;;;;;;;15.82;33.61;92640.81;4843075;29;20113;-78
2022/11/06 08:40:38;;;;;;;1.35;0.90;;;;;;;15.37;33.58;92643.03;4848513;29;20065;-78
2022/11/06 08:43:07;;;;;;;1.83;1.00;;;;;;;15.25;33.23;92640.28;4859778;29;20485;-78
2022/11/06 08:45:37;;;;;;;1.05;0.80;;;;;;;15.04;32.08;92634.81;4856071;29;20037;-78
2022/11/06 08:48:03;;;;;;;6.30;3.35;;;;;;;14.65;33.56;92645.16;4870089;29;20073;-80
2022/11/06 08:50:34;;;;;;;14.30;5.63;;;;;;;14.63;33.60;92642.06;4863737;29;20420;-78
2022/11/06 08:53:03;;;;;;;3.30;1.65;;;;;;;15.04;32.15;92632.19;4864537;29;20453;-80
2022/11/06 08:55:37;;;;;;;51.67;24.05;;;;;;;15.26;29.10;92636.53;4865218;29;20386;-79
2022/11/06 08:58:04;;;;;;;19.63;8.15;;;;;;;15.24;28.94;92633.44;4863424;29;20042;-80
2022/11/06 09:00:30;;;;;;;12.35;5.93;;;;;;;15.20;28.48;92644.63;4861503;29;20046;-79
2022/11/06 09:03:01;;;;;;;14.98;7.53;;;;;;;14.94;30.48;92635.91;4844954;29;20044;-79
2022/11/06 09:05:28;;;;;;;12.10;5.45;;;;;;;14.93;33.14;92642.28;4861938;29;20048;-78
2022/11/06 09:07:55;;;;;;;14.63;5.60;;;;;;;14.65;32.28;92642.53;4862877;29;20405;-80
2022/11/06 09:10:20;;;;;;;3.80;1.70;;;;;;;14.89;31.48;92638.69;4862927;29;20137;-79
2022/11/06 09:12:46;;;;;;;4.53;2.38;;;;;;;15.44;30.21;92632.78;4862974;29;20742;-79
2022/11/06 09:15:11;;;;;;;0.93;0.85;;;;;;;15.31;24.95;92649.56;4863308;29;20052;-78
2022/11/06 09:17:44;;;;;;;0.90;0.65;;;;;;;15.57;27.39;92642.41;4863807;29;20124;-79
2022/11/06 09:20:10;;;;;;;0.77;0.60;;;;;;;16.23;27.13;92644.75;4862585;29;20537;-79
2022/11/06 09:22:36;;;;;;;1.83;0.88;;;;;;;16.88;25.82;92649.13;4862699;29;20037;-79
2022/11/06 09:25:02;;;;;;;1.10;0.80;;;;;;;17.89;25.41;92646.31;4858821;29;20041;-79
2022/11/06 09:27:28;;;;;;;3.60;0.90;;;;;;;18.29;24.93;92643.06;4864387;29;20300;-79
2022/11/06 09:29:53;;;;;;;5.38;1.50;;;;;;;18.39;24.58;92647.16;4863930;29;20036;-79
2022/11/06 09:32:19;;;;;;;6.43;3.10;;;;;;;17.64;31.54;92645.44;4859914;29;20531;-79
2022/11/06 09:34:44;;;;;;;2.33;1.20;;;;;;;16.98;33.72;92649.53;4859541;29;20170;-79
2022/11/06 09:37:10;;;;;;;2.22;1.30;;;;;;;16.37;34.86;92652.47;4859030;29;20045;-79
2022/11/06 09:39:36;;;;;;;1.92;1.10;;;;;;;15.96;35.09;92647.78;4863967;29;20039;-79
2022/11/06 09:42:14;;;;;;;1.95;1.05;;;;;;;15.44;37.67;92655.78;4857038;29;20046;-79
2022/11/06 09:45:03;;;;;;;1.77;1.00;;;;;;;15.50;36.54;92649.25;4862128;29;20048;-79
2022/11/06 09:47:33;;;;;;;2.50;1.10;;;;;;;15.22;37.44;92654.06;4840468;29;20053;-79
2022/11/06 09:50:00;;;;;;;2.00;1.05;;;;;;;15.19;37.17;92645.69;4849858;29;20124;-79
2022/11/06 09:52:41;;;;;;;1.45;0.93;;;;;;;14.99;37.85;92641.03;4862662;29;20037;-79
2022/11/06 09:55:38;;;;;;;2.60;1.17;;;;;;;14.56;38.88;92652.28;4860568;29;20048;-78
2022/11/06 09:58:19;;;;;;;3.25;1.10;;;;;;;14.30;39.33;92645.03;4848338;29;20048;-79
2022/11/06 10:00:44;;;;;;;1.50;0.93;;;;;;;14.30;37.43;92641.66;4861443;29;20037;-78
2022/11/06 10:03:38;;;;;;;0.60;0.57;;;;;;;14.07;32.32;92635.66;4861791;29;20478;-79
2022/11/06 10:06:04;;;;;;;1.05;0.70;;;;;;;13.68;37.73;92634.53;4852355;29;20036;-78
2022/11/06 10:08:30;;;;;;;1.30;0.90;;;;;;;13.50;38.57;92644.94;4858460;29;20098;-78
2022/11/06 10:11:06;;;;;;;0.75;0.65;;;;;;;13.28;33.91;92639.69;4855189;29;20477;-79
2022/11/06 10:14:00;;;;;;;2.85;1.02;;;;;;;13.58;37.34;92640.84;4863817;29;20416;-78
2022/11/06 10:16:28;;;;;;;1.65;1.05;;;;;;;13.71;35.12;92636.56;4861940;29;20042;-78
2022/11/06 10:19:31;;;;;;;2.60;1.05;;;;;;;13.60;34.56;92638.69;4852442;29;20044;-80
2022/11/06 10:22:17;;;;;;;1.88;1.00;;;;;;;13.38;37.58;92636.84;4858190;29;20049;-79
2022/11/06 10:25:03;;;;;;;2.30;1.10;;;;;;;13.33;37.47;92640.38;4856121;29;20037;-78
2022/11/06 10:27:39;;;;;;;2.60;1.30;;;;;;;13.20;37.94;92637.75;4866084;29;20134;-79
2022/11/06 10:30:10;;;;;;;1.63;1.08;;;;;;;13.19;39.33;92638.81;4856020;29;20050;-78
2022/11/06 10:33:06;;;;;;;1.67;0.90;;;;;;;13.15;38.02;92637.84;4851800;29;20084;-78
2022/11/06 10:36:13;;;;;;;3.92;1.90;;;;;;;12.96;38.92;92632.78;4865981;29;20367;-78
2022/11/06 10:38:46;;;;;;;6.63;3.45;;;;;;;12.85;38.20;92632.97;4841910;29;20053;-77
2022/11/06 10:41:21;;;;;;;10.65;6.47;;;;;;;12.73;38.09;92643.25;4856701;29;20033;-78
2022/11/06 10:43:59;;;;;;;2.15;1.30;;;;;;;12.41;37.41;92644.16;4857447;29;20052;-77
2022/11/06 10:46:42;;;;;;;3.00;1.35;;;;;;;12.24;38.42;92639.50;4858046;29;20098;-77
2022/11/06 10:49:33;;;;;;;4.63;2.47;;;;;;;12.28;40.89;92633.38;4859413;29;20416;-78
2022/11/06 10:52:04;;;;;;;0.80;0.80;;;;;;;12.23;40.53;92641.34;4874246;29;20041;-78
2022/11/06 10:54:46;;;;;;;2.90;1.40;;;;;;;12.17;41.75;92641.72;4869213;29;20579;-78
2022/11/06 10:57:26;;;;;;;8.07;5.10;;;;;;;12.27;41.66;92634.44;4849815;29;20124;-77
2022/11/06 10:59:52;;;;;;;2.83;1.60;;;;;;;12.47;42.81;92637.72;4859819;29;20570;-77
2022/11/06 11:02:29;;;;;;;1.30;0.77;;;;;;;12.76;38.82;92631.34;4858179;29;20042;-77
2022/11/06 11:04:55;;;;;;;8.52;4.63;;;;;;;12.81;40.18;92633.88;4862126;29;20048;-77
2022/11/06 11:07:21;;;;;;;8.63;4.53;;;;;;;12.60;41.56;92636.16;4879832;29;20038;-78
2022/11/06 11:09:49;;;;;;;10.10;6.22;;;;;;;12.11;42.66;92627.91;4838318;29;20054;-77
2022/11/06 11:12:22;;;;;;;21.15;12.95;;;;;;;12.05;38.86;92629.09;4846579;29;20452;-78
2022/11/06 11:15:12;;;;;;;2.80;1.20;;;;;;;11.74;42.08;92629.59;4855523;29;20085;-77
2022/11/06 11:17:39;;;;;;;3.17;1.70;;;;;;;11.64;44.99;92629.78;4879529;29;20116;-78
2022/11/06 11:20:29;;;;;;;1.52;0.82;;;;;;;12.02;44.64;92625.22;4844996;29;20038;-77
2022/11/06 11:23:05;;;;;;;8.23;4.28;;;;;;;12.08;45.15;92620.63;4853729;29;20034;-77
2022/11/06 11:25:31;;;;;;;5.55;2.35;;;;;;;11.98;43.50;92628.69;4847798;29;20050;-78
2022/11/06 11:27:57;;;;;;;11.48;4.63;;;;;;;11.99;43.29;92619.75;4855523;29;20042;-77
2022/11/06 11:30:28;;;;;;;5.32;2.13;;;;;;;12.26;43.93;92625.00;4857621;29;20119;-78
2022/11/06 11:32:56;;;;;;;12.87;6.40;;;;;;;12.21;41.80;92626.97;4844341;29;20493;-77
2022/11/06 11:35:28;;;;;;;5.47;3.25;;;;;;;12.23;39.73;92622.19;4847434;29;20298;-78
2022/11/06 11:38:12;;;;;;;0.73;0.68;;;;;;;12.44;37.25;92615.47;4861694;29;20041;-78
2022/11/06 11:40:38;;;;;;;6.63;3.22;;;;;;;12.65;39.58;92623.72;4851181;29;20408;-78
2022/11/06 11:43:24;;;;;;;1.30;0.85;;;;;;;12.71;38.49;92617.25;4854629;29;20098;-78
2022/11/06 11:46:02;;;;;;;1.08;0.93;;;;;;;13.02;39.39;92619.22;4856321;29;20029;-79
2022/11/06 11:48:42;;;;;;;10.20;5.32;;;;;;;13.04;40.61;92617.06;4854169;29;20056;-78
2022/11/06 11:51:31;;;;;;;2.55;1.35;;;;;;;13.04;37.52;92611.81;4860938;29;20045;-79
2022/11/06 11:54:04;;;;;;;2.17;1.20;;;;;;;13.31;38.68;92604.94;4843332;29;20056;-79
2022/11/06 11:56:31;;;;;;;2.55;1.42;;;;;;;13.40;38.19;92611.03;4851175;29;20041;-80
2022/11/06 11:58:59;;;;;;;5.82;2.47;;;;;;;13.26;41.58;92603.16;4848932;29;20760;-79
2022/11/06 12:01:36;;;;;;;4.15;2.50;;;;;;;13.08;42.11;92599.66;4852126;29;20060;-79
2022/11/06 12:04:08;;;;;;;3.58;2.10;;;;;;;12.86;41.24;92604.88;4854420;29;20064;-79
2022/11/06 12:06:34;;;;;;;;;;;;;;;12.62;41.22;92605.91;4861424;29;20476;-78